Time;durP1;ratioP1;P1;durP2;ratioP2;P2;SDS_P1;SDS_P2;PMS_P1;PMS_P2;Temp;Humidity;BMP_temperature;BMP_pressure;BME280_temperature;BME280_humidity;BME280_pressure;Samples;Min_cycle;Max_cycle;Signal;HPM_P1;HPM_P2
2021/11/09 00:00:57;;;;;;;53.40;31.68;;;;;;;6.32;73.45;97857.09;1799778;78;28800;-86
2021/11/09 00:03:23;;;;;;;51.95;30.17;;;;;;;6.32;73.56;97855.76;1735796;81;25816;-86
2021/11/09 00:05:57;;;;;;;49.03;28.65;;;;;;;6.29;73.65;97853.42;1779626;80;25759;-87
2021/11/09 00:08:29;;;;;;;45.63;29.20;;;;;;;6.29;73.74;97854.75;1791394;79;25696;-86
2021/11/09 00:10:50;;;;;;;45.78;29.57;;;;;;;6.30;73.86;97855.09;1790633;80;25846;-87
2021/11/09 00:13:19;;;;;;;42.85;28.17;;;;;;;6.29;73.82;97853.42;1791886;78;28283;-87
2021/11/09 00:15:46;;;;;;;41.02;26.95;;;;;;;6.28;73.90;97855.80;1792014;80;25832;-86
2021/11/09 00:18:13;;;;;;;41.28;27.80;;;;;;;6.26;73.93;97862.66;1792017;78;25787;-86
2021/11/09 00:20:41;;;;;;;44.18;31.35;;;;;;;6.28;73.97;97859.81;1792014;78;26179;-86
2021/11/09 00:23:10;;;;;;;49.08;32.05;;;;;;;6.27;74.09;97860.83;1791862;78;25703;-86
2021/11/09 00:25:40;;;;;;;38.35;25.08;;;;;;;6.25;74.14;97861.50;1791917;78;27540;-86
2021/11/09 00:28:08;;;;;;;34.78;22.70;;;;;;;6.28;74.13;97862.50;1791872;78;25839;-86
2021/11/09 00:30:35;;;;;;;35.55;22.17;;;;;;;6.30;74.09;97867.16;1792146;79;25737;-86
2021/11/09 00:33:03;;;;;;;32.70;21.23;;;;;;;6.30;73.94;97872.02;1792177;78;26140;-85
2021/11/09 00:35:32;;;;;;;34.03;23.50;;;;;;;6.26;74.08;97869.38;1792085;78;25780;-86
2021/11/09 00:38:03;;;;;;;32.80;21.97;;;;;;;6.23;73.98;97871.55;1792137;78;27407;-86
2021/11/09 00:40:34;;;;;;;31.52;21.52;;;;;;;6.21;74.13;97873.06;1778860;79;25698;-86
2021/11/09 00:43:01;;;;;;;33.83;22.25;;;;;;;6.20;74.27;97870.55;1777714;79;25730;-86
2021/11/09 00:45:29;;;;;;;33.05;22.60;;;;;;;6.21;74.21;97877.58;1801796;79;26311;-87
2021/11/09 00:47:56;;;;;;;31.90;23.25;;;;;;;6.23;74.27;97878.25;1779199;79;25753;-86
2021/11/09 00:50:24;;;;;;;45.10;30.37;;;;;;;6.24;74.44;97880.77;1799419;78;27342;-87
2021/11/09 00:52:52;;;;;;;42.67;27.65;;;;;;;6.22;74.40;97878.75;1782185;78;25697;-87
2021/11/09 00:55:19;;;;;;;37.93;24.75;;;;;;;6.21;74.50;97872.22;1801443;78;25944;-86
2021/11/09 00:57:47;;;;;;;33.92;20.95;;;;;;;6.20;74.50;97874.56;1779834;78;25883;-86
2021/11/09 01:00:19;;;;;;;28.73;19.90;;;;;;;6.21;74.51;97873.56;1781349;79;26315;-86
2021/11/09 01:02:49;;;;;;;31.37;21.55;;;;;;;6.21;74.51;97873.56;1778863;78;27475;-87
2021/11/09 01:05:22;;;;;;;29.77;19.02;;;;;;;6.22;74.50;97871.22;1778303;78;25787;-86
2021/11/09 01:07:48;;;;;;;29.12;19.95;;;;;;;6.24;74.53;97882.61;1800648;77;25679;-87
2021/11/09 01:10:16;;;;;;;28.45;19.20;;;;;;;6.25;74.53;97881.60;1807921;77;25754;-86
2021/11/09 01:12:43;;;;;;;26.60;18.77;;;;;;;6.28;74.52;97880.73;1833655;77;25729;-86
2021/11/09 01:15:10;;;;;;;30.32;20.77;;;;;;;6.26;74.58;97880.09;1816048;77;28167;-87
2021/11/09 01:17:37;;;;;;;32.70;20.00;;;;;;;6.23;74.60;97878.25;1807677;76;25785;-87
2021/11/09 01:20:05;;;;;;;24.00;18.17;;;;;;;6.24;74.71;97882.61;1840939;77;25861;-88
2021/11/09 01:22:32;;;;;;;28.73;18.55;;;;;;;6.22;74.75;97881.44;1808566;77;26174;-87
2021/11/09 01:24:59;;;;;;;29.35;18.80;;;;;;;6.19;74.76;97885.80;1840991;77;25644;-88
2021/11/09 01:27:26;;;;;;;27.98;18.65;;;;;;;6.21;74.75;97882.44;1840723;77;28226;-87
2021/11/09 01:29:53;;;;;;;26.42;18.00;;;;;;;6.24;74.72;97882.61;1840507;77;25691;-88
2021/11/09 01:32:19;;;;;;;26.45;17.30;;;;;;;6.28;74.71;97879.39;1840840;77;25782;-87
2021/11/09 01:34:46;;;;;;;29.50;18.37;;;;;;;6.27;74.77;97878.25;1840879;77;26442;-88
2021/11/09 01:37:13;;;;;;;26.33;17.50;;;;;;;6.26;74.84;97888.64;1841042;77;25675;-87
2021/11/09 01:39:39;;;;;;;24.43;17.10;;;;;;;6.27;74.89;97884.95;1840226;77;27484;-87
2021/11/09 01:42:06;;;;;;;24.35;16.52;;;;;;;6.26;74.96;97888.64;1793765;77;25728;-88
2021/11/09 01:44:33;;;;;;;26.05;16.25;;;;;;;6.24;75.03;97887.97;1823366;77;25723;-87
2021/11/09 01:46:59;;;;;;;20.55;15.88;;;;;;;6.25;75.04;97885.62;1830169;76;25795;-88
2021/11/09 01:49:27;;;;;;;21.20;15.70;;;;;;;6.27;75.04;97887.63;1819156;77;25759;-86
2021/11/09 01:51:53;;;;;;;21.90;15.25;;;;;;;6.27;75.10;97884.95;1840817;77;27498;-89
2021/11/09 01:54:20;;;;;;;24.60;14.78;;;;;;;6.18;75.03;97884.63;1840295;77;25951;-88
2021/11/09 01:56:47;;;;;;;22.77;15.32;;;;;;;6.13;75.08;97886.50;1841044;77;25834;-88
2021/11/09 01:59:14;;;;;;;24.10;17.17;;;;;;;6.12;75.23;97887.00;1840904;77;25870;-89
2021/11/09 02:01:41;;;;;;;24.87;16.65;;;;;;;6.10;75.33;97887.67;1822241;77;25711;-89
2021/11/09 02:04:09;;;;;;;23.65;15.83;;;;;;;6.12;75.42;97887.00;1826958;77;27422;-89
2021/11/09 02:06:36;;;;;;;23.67;15.50;;;;;;;6.10;75.55;97889.52;1840842;77;25777;-88
2021/11/09 02:09:16;;;;;;;24.43;16.95;;;;;;;6.09;75.60;97892.69;1796072;76;25809;-89
2021/11/09 02:11:44;;;;;;;23.35;16.90;;;;;;;6.09;75.62;97895.38;1690031;84;25784;-84
2021/11/09 02:14:10;;;;;;;21.57;14.85;;;;;;;6.12;75.68;97899.56;1691527;83;25804;-84
2021/11/09 02:16:38;;;;;;;24.15;15.95;;;;;;;6.07;75.70;97900.06;1691000;84;27442;-85
2021/11/09 02:19:06;;;;;;;21.40;13.65;;;;;;;6.08;75.77;97901.73;1691860;83;25745;-87
2021/11/09 02:21:34;;;;;;;18.55;13.65;;;;;;;6.09;75.78;97898.05;1690025;84;25537;-85
2021/11/09 02:24:01;;;;;;;16.62;11.73;;;;;;;6.08;75.84;97900.91;1694295;84;25574;-85
2021/11/09 02:26:28;;;;;;;19.12;12.47;;;;;;;6.11;75.88;97904.59;1694383;84;25846;-87
2021/11/09 02:28:58;;;;;;;18.40;11.83;;;;;;;6.12;75.83;97910.28;1692539;83;27208;-87
2021/11/09 02:31:26;;;;;;;17.52;11.80;;;;;;;6.13;75.89;97916.81;1693622;84;25487;-84
2021/11/09 02:33:52;;;;;;;15.08;11.97;;;;;;;6.21;75.84;97916.45;1694395;84;25777;-88
2021/11/09 02:36:19;;;;;;;17.05;12.30;;;;;;;6.23;75.72;97921.14;1694103;84;25730;-85
2021/11/09 02:38:48;;;;;;;14.58;11.57;;;;;;;6.26;75.65;97916.79;1690678;84;25761;-87
2021/11/09 02:41:15;;;;;;;17.62;11.70;;;;;;;6.29;75.59;97918.60;1691748;84;27591;-86
2021/11/09 02:43:41;;;;;;;15.40;11.63;;;;;;;6.29;75.53;97921.78;1673833;84;25762;-86
2021/11/09 02:51:37;;;;;;;12.45;9.70;;;;;;;6.27;75.54;97925.17;1690908;84;26131;-87
2021/11/09 02:54:11;;;;;;;14.68;10.20;;;;;;;6.26;75.43;97923.49;1692803;84;27473;-86
2021/11/09 02:56:45;;;;;;;16.00;11.08;;;;;;;6.27;75.44;97929.19;1690217;84;25837;-85
2021/11/09 03:04:57;;;;;;;12.75;10.65;;;;;;;6.29;75.46;97928.48;1690944;83;25834;-87
2021/11/09 03:07:24;;;;;;;14.85;10.88;;;;;;;6.28;75.46;97930.33;1690837;84;27491;-85
2021/11/09 03:09:58;;;;;;;14.93;10.68;;;;;;;6.28;75.44;97935.69;1699021;83;25829;-84
2021/11/09 03:12:20;;;;;;;14.45;10.95;;;;;;;6.27;75.32;97934.05;1717674;83;26580;-85
2021/11/09 03:14:47;;;;;;;14.60;10.82;;;;;;;6.24;75.41;97942.92;1719992;83;25708;-87
2021/11/09 03:17:23;;;;;;;14.43;11.65;;;;;;;6.24;75.36;97949.63;1719966;83;26438;-85
2021/11/09 03:20:00;;;;;;;14.95;11.68;;;;;;;6.23;75.41;97945.27;1720074;83;28160;-87
2021/11/09 03:46:43;;;;;;;13.78;11.12;;;;;;;6.22;75.55;97977.11;1668171;85;28094;-84
2021/11/09 03:49:11;;;;;;;16.73;11.35;;;;;;;6.20;75.59;97969.73;1668157;85;26341;-86
2021/11/09 03:51:38;;;;;;;12.47;9.63;;;;;;;6.14;75.62;97984.67;1666131;85;25841;-86
2021/11/09 03:54:11;;;;;;;12.15;9.30;;;;;;;6.12;75.51;97976.80;1668314;85;25991;-84
2021/11/09 03:59:10;;;;;;;14.20;10.50;;;;;;;6.12;75.63;97980.81;1668147;85;27476;-84
2021/11/09 04:01:42;;;;;;;15.78;11.60;;;;;;;6.13;75.66;97991.88;1667303;85;26242;-85
2021/11/09 04:06:36;;;;;;;16.07;12.35;;;;;;;6.14;75.82;97994.05;1668321;85;26299;-85
2021/11/09 04:11:51;;;;;;;16.77;11.53;;;;;;;6.20;75.86;97988.50;1642744;85;27420;-87
2021/11/09 04:14:19;;;;;;;14.55;11.35;;;;;;;6.22;75.88;97989.17;1638792;87;25831;-86
2021/11/09 04:17:04;;;;;;;14.80;10.98;;;;;;;6.23;75.90;97991.69;1655018;85;25337;-88
2021/11/09 04:19:41;;;;;;;15.88;11.10;;;;;;;6.24;75.98;97998.72;1639453;86;26016;-85
2021/11/09 05:10:12;;;;;;;14.98;11.00;;;;;;;6.23;76.86;98039.10;1645230;85;25756;-85
2021/11/09 05:12:38;;;;;;;14.60;11.38;;;;;;;6.21;77.02;98039.77;1685045;83;26478;-86
2021/11/09 05:15:06;;;;;;;13.85;10.38;;;;;;;6.12;77.01;98042.97;1665847;83;25727;-86
2021/11/09 05:17:33;;;;;;;11.90;9.68;;;;;;;6.11;77.13;98050.16;1684470;83;27383;-87
2021/11/09 05:19:59;;;;;;;19.00;11.10;;;;;;;6.12;77.14;98049.16;1654839;86;25645;-86
2021/11/09 05:22:26;;;;;;;17.67;11.73;;;;;;;6.13;77.17;98056.20;1657710;86;25849;-88
2021/11/09 05:24:52;;;;;;;14.60;10.53;;;;;;;6.12;77.19;98056.36;1657772;86;25499;-85
2021/11/09 05:27:19;;;;;;;15.20;11.05;;;;;;;6.09;77.26;98054.85;1657678;86;26451;-85
2021/11/09 05:29:46;;;;;;;13.30;11.20;;;;;;;6.12;77.31;98065.25;1657707;86;28234;-87
2021/11/09 05:32:13;;;;;;;13.93;11.53;;;;;;;6.10;77.34;98065.07;1657501;86;25854;-88
2021/11/09 05:34:40;;;;;;;15.30;12.35;;;;;;;6.06;77.45;98067.73;1657537;86;25956;-88
2021/11/09 05:37:09;;;;;;;15.35;11.38;;;;;;;6.07;77.49;98072.94;1657585;85;26489;-88
2021/11/09 05:39:59;;;;;;;14.90;11.00;;;;;;;6.07;77.52;98075.62;1657506;86;25807;-86
2021/11/09 05:42:03;;;;;;;16.82;11.48;;;;;;;6.05;77.54;98076.28;1646193;86;28354;-86
2021/11/09 05:44:30;;;;;;;14.75;10.75;;;;;;;6.05;77.57;98080.30;1657454;86;25309;-88
2021/11/09 05:46:57;;;;;;;14.47;11.43;;;;;;;6.08;77.59;98085.84;1657598;86;25775;-88
2021/11/09 05:49:25;;;;;;;15.80;11.10;;;;;;;6.10;77.64;98088.70;1657528;86;25666;-85
2021/11/09 05:51:51;;;;;;;17.02;11.95;;;;;;;6.14;77.65;98097.25;1657636;86;25722;-88
2021/11/09 05:54:18;;;;;;;16.27;11.43;;;;;;;6.18;77.67;98102.59;1657641;86;27379;-84
2021/11/09 05:56:44;;;;;;;17.37;11.75;;;;;;;6.23;77.62;98111.48;1657445;86;26473;-85
2021/11/09 05:59:11;;;;;;;17.45;12.53;;;;;;;6.25;77.54;98109.48;1657663;86;25778;-86
2021/11/09 06:01:38;;;;;;;19.35;13.03;;;;;;;6.28;77.52;98115.86;1657291;86;25831;-84
2021/11/09 06:04:04;;;;;;;19.98;14.25;;;;;;;6.28;77.54;98123.91;1657624;86;25717;-84
2021/11/09 06:06:31;;;;;;;22.00;14.45;;;;;;;6.25;77.60;98133.61;1657668;86;27217;-84
2021/11/09 06:08:58;;;;;;;19.82;13.68;;;;;;;6.24;77.62;98137.30;1657537;86;25806;-86
2021/11/09 06:11:24;;;;;;;23.50;14.10;;;;;;;6.26;77.65;98145.52;1645637;86;25753;-86
2021/11/09 06:13:51;;;;;;;17.55;12.80;;;;;;;6.26;77.64;98148.20;1689517;84;26627;-83
2021/11/09 06:16:17;;;;;;;17.55;13.28;;;;;;;6.23;77.64;98150.36;1692716;84;26610;-83
2021/11/09 06:18:44;;;;;;;19.85;13.55;;;;;;;6.26;77.71;98159.42;1691419;83;27362;-83
2021/11/09 06:21:11;;;;;;;21.62;15.03;;;;;;;6.28;77.73;98156.88;1690825;83;25754;-83
2021/11/09 06:23:38;;;;;;;21.02;14.45;;;;;;;6.30;77.71;98160.74;1692932;83;25745;-86
2021/11/09 06:26:04;;;;;;;18.35;13.20;;;;;;;6.31;77.70;98159.24;1691844;83;25811;-85
2021/11/09 06:28:31;;;;;;;18.70;12.58;;;;;;;6.32;77.69;98173.48;1692774;83;25806;-83
2021/11/09 06:30:58;;;;;;;20.90;12.88;;;;;;;6.31;77.82;98174.49;1690883;84;28338;-84
2021/11/09 06:33:26;;;;;;;16.55;12.28;;;;;;;6.30;77.83;98180.85;1690725;84;25845;-85
2021/11/09 06:35:53;;;;;;;23.80;15.55;;;;;;;6.33;77.87;98191.25;1690835;84;25790;-85
2021/11/09 06:38:20;;;;;;;25.65;16.70;;;;;;;6.32;77.90;98203.83;1689439;83;25711;-84
2021/11/09 06:40:47;;;;;;;19.25;14.60;;;;;;;6.33;77.98;98197.45;1694327;83;25763;-86
2021/11/09 06:43:13;;;;;;;25.88;18.30;;;;;;;6.32;78.04;98205.66;1694181;83;27374;-85
2021/11/09 06:45:40;;;;;;;17.10;12.13;;;;;;;6.35;78.09;98212.89;1694253;83;25783;-84
2021/11/09 06:48:07;;;;;;;15.40;11.60;;;;;;;6.36;78.20;98219.93;1694251;84;25309;-86
2021/11/09 06:50:34;;;;;;;14.00;11.18;;;;;;;6.35;78.04;98228.14;1694280;83;26441;-84
2021/11/09 06:53:02;;;;;;;14.55;10.70;;;;;;;6.38;78.15;98231.84;1694349;84;25746;-84
2021/11/09 06:55:29;;;;;;;17.02;11.20;;;;;;;6.37;78.16;98236.86;1694398;83;26820;-87
2021/11/09 06:57:56;;;;;;;13.88;10.58;;;;;;;6.40;78.21;98244.59;1693891;84;26188;-86
2021/11/09 07:00:24;;;;;;;16.23;12.37;;;;;;;6.40;78.27;98247.27;1694229;83;25798;-86
2021/11/09 07:02:51;;;;;;;17.15;12.03;;;;;;;6.43;78.24;98249.09;1694355;83;25905;-86
2021/11/09 07:05:19;;;;;;;15.58;12.47;;;;;;;6.50;78.32;98261.36;1694266;83;25852;-87
2021/11/09 07:07:46;;;;;;;19.98;12.18;;;;;;;6.57;78.34;98263.70;1694354;83;27361;-86
2021/11/09 07:10:13;;;;;;;18.23;11.78;;;;;;;6.61;78.34;98263.72;1694268;83;25853;-84
2021/11/09 07:12:40;;;;;;;19.15;12.35;;;;;;;6.65;78.35;98269.07;1717495;82;25794;-86
2021/11/09 07:15:08;;;;;;;18.17;12.05;;;;;;;6.68;78.34;98279.48;1719724;83;26011;-88
2021/11/09 07:17:38;;;;;;;16.73;12.10;;;;;;;6.73;78.38;98277.66;1718855;83;26175;-85
2021/11/09 07:20:04;;;;;;;18.00;13.65;;;;;;;6.77;78.36;98278.48;1706349;83;28242;-85
2021/11/09 07:22:31;;;;;;;18.40;13.03;;;;;;;6.81;78.31;98283.86;1710161;83;25746;-86
2021/11/09 07:24:58;;;;;;;18.12;12.70;;;;;;;6.85;78.30;98288.41;1719965;82;25683;-84
2021/11/09 07:27:25;;;;;;;19.60;11.68;;;;;;;6.91;78.30;98293.59;1719950;82;25801;-84
2021/11/09 07:29:52;;;;;;;31.82;20.60;;;;;;;6.88;78.20;98304.98;1720068;82;25747;-84
2021/11/09 07:32:21;;;;;;;54.67;32.60;;;;;;;6.90;78.26;98305.33;1719711;83;27427;-84
2021/11/09 07:34:48;;;;;;;63.55;35.17;;;;;;;6.93;78.28;98307.69;1719777;82;25674;-84
2021/11/09 07:37:15;;;;;;;27.15;17.37;;;;;;;6.96;78.32;98316.76;1719996;82;25831;-87
2021/11/09 07:39:42;;;;;;;20.55;14.40;;;;;;;6.91;78.33;98321.27;1719708;82;26017;-84
2021/11/09 07:42:08;;;;;;;17.10;12.40;;;;;;;6.87;78.27;98318.60;1719996;83;26138;-84
2021/11/09 07:44:35;;;;;;;16.23;11.80;;;;;;;6.88;78.28;98320.78;1719982;82;27448;-86
2021/11/09 07:47:04;;;;;;;15.78;11.73;;;;;;;6.92;78.30;98323.45;1719857;82;25708;-86
2021/11/09 07:49:31;;;;;;;19.55;12.68;;;;;;;6.88;78.16;98331.02;1720010;82;25740;-84
2021/11/09 07:51:57;;;;;;;17.35;12.33;;;;;;;6.86;78.22;98334.36;1719881;82;26631;-84
2021/11/09 07:54:30;;;;;;;21.15;12.90;;;;;;;6.88;78.31;98334.52;1720007;82;25761;-83
2021/11/09 07:57:01;;;;;;;22.67;14.38;;;;;;;6.88;78.29;98338.53;1720666;81;28285;-85
2021/11/09 08:02:05;;;;;;;26.23;17.95;;;;;;;6.86;78.25;98351.81;1719838;82;25864;-84
2021/11/09 08:04:39;;;;;;;30.27;18.87;;;;;;;6.87;78.24;98354.83;1719960;81;25768;-84
2021/11/09 08:07:04;;;;;;;27.80;19.82;;;;;;;6.87;78.16;98356.17;1720782;82;25713;-85
2021/11/09 08:09:29;;;;;;;39.38;28.50;;;;;;;6.85;78.12;98361.70;1720220;81;28158;-86
2021/11/09 08:12:00;;;;;;;36.93;25.05;;;;;;;6.86;78.07;98370.09;1707588;82;25954;-83
2021/11/09 08:14:28;;;;;;;37.48;25.20;;;;;;;6.86;78.06;98371.44;1675528;84;25861;-85
2021/11/09 08:16:56;;;;;;;38.42;23.70;;;;;;;6.88;78.16;98374.46;1694243;84;26651;-86
2021/11/09 08:19:24;;;;;;;33.48;23.73;;;;;;;6.88;78.20;98372.09;1691713;84;25786;-83
2021/11/09 08:21:56;;;;;;;37.85;26.70;;;;;;;6.92;78.16;98379.31;1692445;83;27539;-83
2021/11/09 08:24:23;;;;;;;32.93;23.83;;;;;;;6.96;78.08;98383.86;1691018;83;25731;-83
2021/11/09 08:26:52;;;;;;;35.75;23.05;;;;;;;7.00;78.08;98384.72;1692564;84;25794;-84
2021/11/09 08:29:28;;;;;;;36.63;23.25;;;;;;;7.03;78.08;98386.21;1689521;83;25672;-84
2021/11/09 08:31:57;;;;;;;30.20;21.33;;;;;;;7.06;78.01;98389.91;1692959;83;25895;-82
2021/11/09 08:34:25;;;;;;;31.80;20.52;;;;;;;7.11;78.02;98401.86;1694237;83;28085;-84
2021/11/09 08:36:52;;;;;;;32.83;21.60;;;;;;;7.14;77.93;98391.27;1694106;83;25781;-85
2021/11/09 08:39:22;;;;;;;31.07;21.90;;;;;;;7.15;77.95;98401.00;1694024;83;25794;-84
2021/11/09 08:42:39;;;;;;;34.67;22.10;;;;;;;7.16;77.93;98405.36;1694501;82;26444;-83
2021/11/09 08:44:21;;;;;;;32.78;21.73;;;;;;;7.17;77.85;98405.20;1688748;83;25914;-83
2021/11/09 08:46:55;;;;;;;32.63;21.23;;;;;;;7.17;77.80;98408.39;1694432;82;27372;-84
2021/11/09 08:49:23;;;;;;;35.25;21.45;;;;;;;7.19;77.84;98417.13;1694624;82;25364;-86
2021/11/09 08:51:52;;;;;;;30.55;20.72;;;;;;;7.18;77.79;98416.78;1694291;83;25842;-83
2021/11/09 08:54:22;;;;;;;31.80;21.45;;;;;;;7.15;77.65;98424.66;1694369;83;25826;-85
2021/11/09 09:05:09;;;;;;;31.73;21.60;;;;;;;7.14;77.68;98430.20;1694286;83;26423;-84
2021/11/09 09:07:37;;;;;;;28.20;19.17;;;;;;;7.17;77.77;98437.93;1694409;84;26469;-84
2021/11/09 09:10:10;;;;;;;31.62;19.57;;;;;;;7.19;77.66;98439.45;1694415;83;25781;-85
2021/11/09 09:12:40;;;;;;;29.67;19.42;;;;;;;7.23;77.63;98446.69;1694176;83;27422;-84
2021/11/09 09:15:08;;;;;;;27.62;18.85;;;;;;;7.22;77.66;98449.03;1694328;83;25880;-85
2021/11/09 09:17:35;;;;;;;26.93;18.32;;;;;;;7.23;77.64;98457.42;1693688;84;25731;-83
2021/11/09 09:20:15;;;;;;;24.00;17.07;;;;;;;7.26;77.56;98458.92;1690878;84;26038;-83
2021/11/09 09:22:42;;;;;;;22.90;15.95;;;;;;;7.28;77.42;98464.97;1690361;83;25699;-84
2021/11/09 09:28:09;;;;;;;22.93;16.10;;;;;;;7.19;77.16;98472.17;1692325;83;26534;-84
2021/11/09 09:33:05;;;;;;;24.25;15.80;;;;;;;7.14;77.28;98479.87;1694450;83;26571;-83
2021/11/09 09:52:14;;;;;;;22.62;14.43;;;;;;;7.16;77.25;98499.34;1694361;84;27441;-83
2021/11/09 09:57:05;;;;;;;27.52;16.00;;;;;;;7.20;77.48;98502.05;1683790;84;25766;-85
2021/11/09 09:59:35;;;;;;;20.80;15.83;;;;;;;7.23;77.43;98508.45;1694368;83;26383;-85
2021/11/09 10:02:25;;;;;;;22.95;15.03;;;;;;;7.29;77.33;98509.13;1694323;83;25707;-84
2021/11/09 10:05:08;;;;;;;20.10;14.80;;;;;;;7.33;77.08;98516.36;1678194;83;27408;-83
2021/11/09 10:07:40;;;;;;;21.30;15.55;;;;;;;7.35;77.08;98519.23;1694218;83;25785;-82
2021/11/09 10:10:17;;;;;;;19.87;14.25;;;;;;;7.41;77.03;98519.05;1694433;84;25862;-83
2021/11/09 10:13:10;;;;;;;21.82;14.85;;;;;;;7.45;76.94;98513.20;1694460;83;25741;-83
2021/11/09 10:15:48;;;;;;;20.95;14.47;;;;;;;7.47;76.97;98518.41;1694081;84;25779;-82
2021/11/09 10:18:19;;;;;;;22.00;14.95;;;;;;;7.51;76.89;98517.90;1692693;84;27470;-83
2021/11/09 10:20:50;;;;;;;21.30;13.70;;;;;;;7.56;76.85;98520.95;1690801;84;25788;-83
2021/11/09 10:23:21;;;;;;;22.32;15.05;;;;;;;7.57;76.68;98522.63;1691084;84;25921;-83
2021/11/09 10:25:51;;;;;;;21.42;14.75;;;;;;;7.59;76.73;98530.53;1693487;83;26619;-84
2021/11/09 10:28:23;;;;;;;20.27;14.05;;;;;;;7.65;76.79;98526.33;1693037;83;26427;-85
2021/11/09 10:31:01;;;;;;;20.45;13.68;;;;;;;7.67;76.68;98533.72;1691011;84;27458;-85
2021/11/09 10:33:41;;;;;;;24.95;16.25;;;;;;;7.70;76.58;98536.09;1692182;84;25863;-82
2021/11/09 10:36:29;;;;;;;31.10;20.25;;;;;;;7.74;76.48;98536.91;1690209;83;25719;-82
2021/11/09 10:38:53;;;;;;;24.23;15.90;;;;;;;7.79;76.33;98538.61;1689987;84;26480;-83
2021/11/09 10:41:20;;;;;;;32.83;24.20;;;;;;;7.82;76.17;98539.63;1692973;84;25797;-83
2021/11/09 10:43:48;;;;;;;27.98;19.73;;;;;;;7.79;76.07;98537.77;1692480;84;27617;-83
2021/11/09 10:46:28;;;;;;;24.65;17.50;;;;;;;7.78;76.18;98546.84;1694007;83;25812;-85
2021/11/09 10:48:55;;;;;;;22.70;15.70;;;;;;;7.74;75.99;98545.48;1692386;83;25732;-83
2021/11/09 10:51:23;;;;;;;28.15;15.30;;;;;;;7.74;76.11;98549.52;1694279;84;26362;-82
2021/11/09 10:53:54;;;;;;;23.75;15.93;;;;;;;7.79;76.13;98552.55;1692481;84;25798;-85
2021/11/09 10:56:38;;;;;;;21.77;15.10;;;;;;;7.84;76.26;98545.69;1691357;84;28276;-83
2021/11/09 11:04:39;;;;;;;18.55;14.55;;;;;;;7.90;76.28;98552.23;1694047;84;25761;-86
2021/11/09 11:07:10;;;;;;;23.67;15.15;;;;;;;7.91;76.23;98553.91;1693403;84;26408;-83
2021/11/09 11:09:43;;;;;;;21.07;13.43;;;;;;;7.92;76.31;98553.75;1689283;83;27401;-84
2021/11/09 11:12:11;;;;;;;22.62;15.80;;;;;;;7.95;76.36;98558.80;1688596;84;25699;-83
2021/11/09 11:14:45;;;;;;;19.70;13.75;;;;;;;8.00;76.35;98554.25;1687254;84;26394;-84
2021/11/09 11:17:18;;;;;;;17.75;12.93;;;;;;;8.02;76.26;98546.86;1694205;83;25825;-83
2021/11/09 11:19:50;;;;;;;19.55;13.88;;;;;;;8.05;76.14;98553.26;1685474;84;25887;-84
2021/11/09 11:22:20;;;;;;;17.55;13.08;;;;;;;8.05;76.06;98550.56;1692383;84;28394;-86
2021/11/09 11:24:56;;;;;;;18.20;12.90;;;;;;;8.09;76.12;98551.89;1694110;83;25808;-83
2021/11/09 11:27:26;;;;;;;16.62;12.10;;;;;;;8.11;76.03;98555.26;1694297;83;25856;-86
2021/11/09 11:29:54;;;;;;;16.10;11.28;;;;;;;8.08;75.95;98556.96;1694508;83;25750;-86
2021/11/09 11:32:24;;;;;;;15.75;11.10;;;;;;;8.08;75.80;98559.66;1693881;83;44174;-83
2021/11/09 11:34:52;;;;;;;15.40;10.65;;;;;;;8.14;75.75;98572.41;1694059;83;27532;-86
2021/11/09 11:37:20;;;;;;;14.10;9.95;;;;;;;8.18;75.57;98569.73;1694107;83;26488;-85
2021/11/09 11:39:53;;;;;;;13.53;10.38;;;;;;;8.23;75.49;98575.44;1694211;84;25691;-85
2021/11/09 11:42:19;;;;;;;15.30;9.95;;;;;;;8.25;75.48;98574.77;1694448;82;25741;-85
2021/11/09 11:44:59;;;;;;;14.75;9.65;;;;;;;8.24;75.57;98578.46;1694296;83;26451;-85
2021/11/09 11:47:26;;;;;;;13.43;9.08;;;;;;;8.25;75.40;98579.30;1693999;83;28181;-84
2021/11/09 11:49:59;;;;;;;13.78;10.55;;;;;;;8.22;75.23;98573.75;1674798;84;26508;-84
2021/11/09 11:52:46;;;;;;;16.75;10.98;;;;;;;8.21;74.81;98583.36;1693385;83;25789;-83
2021/11/09 11:55:27;;;;;;;17.85;12.37;;;;;;;8.19;74.82;98583.52;1677702;83;25796;-85
2021/11/09 11:58:04;;;;;;;15.60;11.70;;;;;;;8.22;74.87;98584.51;1694298;84;25782;-86
2021/11/09 12:00:58;;;;;;;14.65;11.15;;;;;;;8.22;74.81;98587.20;1693367;83;27369;-86
2021/11/09 12:03:30;;;;;;;18.98;12.40;;;;;;;8.22;74.79;98583.67;1694140;84;25879;-83
2021/11/09 12:06:15;;;;;;;16.97;11.80;;;;;;;8.21;74.76;98585.52;1694408;83;25712;-83
2021/11/09 12:08:48;;;;;;;15.75;11.05;;;;;;;8.21;74.89;98589.55;1694028;83;26431;-85
2021/11/09 12:11:35;;;;;;;15.70;11.50;;;;;;;8.24;74.78;98597.80;1693955;83;25795;-84
2021/11/09 12:13:59;;;;;;;;;;;;;;;8.26;74.72;98592.59;1697465;82;28256;-83
2021/11/09 12:16:48;;;;;;;19.40;12.73;;;;;;;8.23;74.85;98594.27;1718820;82;25779;-84
2021/11/09 12:19:45;;;;;;;22.77;13.58;;;;;;;8.18;74.85;98585.88;1715727;83;26470;-86
2021/11/09 12:22:16;;;;;;;22.52;14.07;;;;;;;8.15;74.97;98591.58;1719762;83;25868;-84
2021/11/09 12:24:52;;;;;;;25.60;15.40;;;;;;;8.14;74.76;98595.27;1715249;83;25766;-83
2021/11/09 12:27:21;;;;;;;22.98;15.83;;;;;;;8.13;74.72;98594.94;1719838;83;26404;-86
2021/11/09 12:29:52;;;;;;;18.95;13.53;;;;;;;8.16;74.76;98598.64;1705336;83;25871;-84
2021/11/09 12:32:35;;;;;;;19.30;13.95;;;;;;;8.17;74.61;98594.95;1719698;83;25790;-85
2021/11/09 12:35:17;;;;;;;20.92;14.47;;;;;;;8.20;74.59;98592.44;1701484;83;25736;-83
2021/11/09 12:37:58;;;;;;;20.43;13.28;;;;;;;8.22;74.58;98595.27;1719755;82;25714;-84
2021/11/09 12:40:38;;;;;;;15.98;11.65;;;;;;;8.26;74.61;98599.31;1719932;83;27346;-84
2021/11/09 12:43:31;;;;;;;17.95;12.03;;;;;;;8.30;74.54;98604.70;1719662;83;26095;-86
2021/11/09 12:46:28;;;;;;;13.00;9.90;;;;;;;8.32;74.43;98607.77;1720042;83;25703;-85
2021/11/09 12:49:02;;;;;;;15.25;11.12;;;;;;;8.33;74.39;98610.80;1704713;83;25960;-83
2021/11/09 12:51:36;;;;;;;18.35;12.43;;;;;;;8.32;74.20;98605.08;1720141;83;26324;-87
2021/11/09 12:54:10;;;;;;;15.38;11.95;;;;;;;8.24;74.22;98604.02;1720051;83;27498;-85
2021/11/09 12:56:40;;;;;;;16.17;11.12;;;;;;;8.17;74.34;98607.05;1719881;83;25758;-84
2021/11/09 13:09:55;;;;;;;26.93;11.73;;;;;;;7.79;74.71;98602.28;1719951;83;25822;-84
2021/11/09 13:12:31;;;;;;;45.25;12.23;;;;;;;7.76;74.99;98607.98;1700413;83;25694;-85
2021/11/09 13:15:02;;;;;;;28.23;12.65;;;;;;;7.73;75.14;98605.64;1719471;83;25750;-84
2021/11/09 13:17:43;;;;;;;31.42;12.68;;;;;;;7.71;75.27;98606.30;1699105;82;25720;-84
2021/11/09 13:20:34;;;;;;;33.45;12.40;;;;;;;7.71;75.39;98602.27;1718997;83;27388;-85
2021/11/09 13:23:07;;;;;;;19.40;10.65;;;;;;;7.72;75.38;98599.42;1712710;83;26377;-82
2021/11/09 13:25:54;;;;;;;15.70;9.43;;;;;;;7.79;75.20;98598.25;1719966;83;25788;-83
2021/11/09 13:28:33;;;;;;;16.52;11.18;;;;;;;7.82;74.85;98598.77;1718989;83;26618;-84
2021/11/09 13:31:08;;;;;;;18.37;12.82;;;;;;;7.88;74.76;98598.59;1719066;83;25710;-83
2021/11/09 13:33:43;;;;;;;23.85;15.55;;;;;;;7.95;74.62;98605.02;1704958;82;27366;-85
2021/11/09 13:36:07;;;;;;;24.65;15.00;;;;;;;8.02;74.46;98607.36;1718042;82;25810;-84
2021/11/09 13:38:38;;;;;;;22.85;14.28;;;;;;;8.05;74.41;98609.73;1704057;83;25855;-86
2021/11/09 13:41:17;;;;;;;23.45;16.12;;;;;;;8.09;74.34;98608.36;1720009;83;26341;-82
2021/11/09 13:43:51;;;;;;;22.20;16.00;;;;;;;8.11;74.29;98611.73;1715244;83;25765;-84
2021/11/09 13:46:26;;;;;;;23.45;15.95;;;;;;;8.13;74.33;98607.03;1715122;83;28231;-83
2021/11/09 13:48:58;;;;;;;18.27;14.03;;;;;;;8.16;74.33;98608.05;1719308;83;25872;-83
2021/11/09 13:51:29;;;;;;;19.75;13.38;;;;;;;8.18;74.35;98607.39;1717696;83;25312;-85
2021/11/09 13:54:08;;;;;;;19.25;12.80;;;;;;;8.16;74.36;98604.52;1718266;83;26238;-84
2021/11/09 13:56:35;;;;;;;18.42;13.75;;;;;;;8.10;74.51;98607.36;1718726;82;26525;-86
2021/11/09 13:59:08;;;;;;;22.80;15.32;;;;;;;8.07;74.55;98605.53;1719987;83;27388;-84
2021/11/09 14:02:43;;;;;;;22.77;15.50;;;;;;;8.08;74.61;98611.25;1719923;83;25942;-82
2021/11/09 14:10:47;;;;;;;29.05;18.95;;;;;;;8.15;74.73;98615.78;1719758;83;25781;-83